createdAt,value
2023-02-11T00:00:54.771Z,11.75
2023-02-11T00:03:25.721Z,10.38
2023-02-11T00:06:05.912Z,12.60
2023-02-11T00:08:35.452Z,10.70
2023-02-11T00:11:09.527Z,11.38
2023-02-11T00:13:49.922Z,11.33
2023-02-11T00:16:21.571Z,9.20
2023-02-11T00:18:50.475Z,15.70
2023-02-11T00:21:24.048Z,13.27
2023-02-11T00:23:57.214Z,17.33
2023-02-11T00:26:30.934Z,14.52
2023-02-11T00:28:59.646Z,11.70
2023-02-11T00:31:28.101Z,11.60
2023-02-11T00:34:02.093Z,16.23
2023-02-11T00:36:33.249Z,10.68
2023-02-11T00:39:07.555Z,10.93
2023-02-11T00:41:46.248Z,13.32
2023-02-11T00:44:14.152Z,7.13
2023-02-11T00:46:43.733Z,14.27
2023-02-11T00:49:14.804Z,9.45
2023-02-11T00:51:42.714Z,15.30
2023-02-11T00:54:10.705Z,14.10
2023-02-11T00:56:40.823Z,6.22
2023-02-11T00:59:09.298Z,15.63
2023-02-11T01:01:37.195Z,11.52
2023-02-11T01:04:05.680Z,17.20
2023-02-11T01:06:33.798Z,14.85
2023-02-11T01:09:06.607Z,13.35
2023-02-11T01:11:36.864Z,13.43
2023-02-11T01:14:05.706Z,18.67
2023-02-11T01:16:33.563Z,13.88
2023-02-11T01:19:01.568Z,11.40
2023-02-11T01:21:34.467Z,7.75
2023-02-11T01:24:03.603Z,20.10
2023-02-11T01:26:31.927Z,12.48
2023-02-11T01:29:01.127Z,11.63
2023-02-11T01:31:30.535Z,12.73
2023-02-11T01:33:58.296Z,9.65
2023-02-11T01:36:26.178Z,7.32
2023-02-11T01:38:54.031Z,9.43
2023-02-11T01:41:22.141Z,8.32
2023-02-11T01:43:50.656Z,9.68
2023-02-11T01:46:31.159Z,11.30
2023-02-11T01:49:12.592Z,15.20
2023-02-11T01:52:05.929Z,9.82
2023-02-11T01:54:54.863Z,12.45
2023-02-11T01:57:27.129Z,12.55
2023-02-11T02:00:12.986Z,14.05
2023-02-11T02:03:04.122Z,13.40
2023-02-11T02:05:37.902Z,9.02
2023-02-11T02:08:29.662Z,9.53
2023-02-11T02:11:00.885Z,8.98
2023-02-11T02:13:32.735Z,9.40
2023-02-11T02:16:11.920Z,9.45
2023-02-11T02:18:52.017Z,8.35
2023-02-11T02:21:45.822Z,10.40
2023-02-11T02:24:14.325Z,8.02
2023-02-11T02:26:54.235Z,20.48
2023-02-11T02:29:49.615Z,7.72
2023-02-11T02:35:00.204Z,12.45
2023-02-11T02:37:31.897Z,8.95
2023-02-11T02:40:10.032Z,17.60
2023-02-11T02:42:40.458Z,11.07
2023-02-11T02:45:13.450Z,15.93
2023-02-11T02:47:41.210Z,17.52
2023-02-11T02:50:11.154Z,12.40
2023-02-11T02:52:59.261Z,11.75
2023-02-11T02:55:37.504Z,23.92
2023-02-11T02:58:47.101Z,18.30
2023-02-11T03:01:33.934Z,15.20
2023-02-11T03:04:22.797Z,12.98
2023-02-11T03:07:05.947Z,14.15
2023-02-11T03:10:02.586Z,14.30
2023-02-11T03:12:33.621Z,11.38
2023-02-11T03:15:06.011Z,11.95
2023-02-11T03:17:37.433Z,11.27
2023-02-11T03:20:08.849Z,8.80
2023-02-11T03:22:56.228Z,8.13
2023-02-11T03:25:32.466Z,11.07
2023-02-11T03:28:36.915Z,19.10
2023-02-11T03:31:28.887Z,11.23
2023-02-11T03:34:10.245Z,18.92
2023-02-11T03:36:57.300Z,13.88
2023-02-11T03:39:30.206Z,9.90
2023-02-11T03:42:01.001Z,16.23
2023-02-11T03:44:36.896Z,12.80
2023-02-11T03:47:08.099Z,15.95
2023-02-11T03:49:42.146Z,16.17
2023-02-11T03:52:12.497Z,16.45
2023-02-11T03:54:44.038Z,17.05
2023-02-11T03:57:12.102Z,12.85
2023-02-11T03:59:58.590Z,20.50
2023-02-11T04:02:35.724Z,16.10
2023-02-11T04:05:11.098Z,11.15
2023-02-11T04:07:38.899Z,28.52
2023-02-11T04:10:13.406Z,12.02
2023-02-11T04:12:41.124Z,12.82
2023-02-11T04:15:13.272Z,10.73
2023-02-11T04:17:46.140Z,14.20
2023-02-11T04:20:13.933Z,14.82
2023-02-11T04:22:47.006Z,12.20
2023-02-11T04:25:14.898Z,18.02
2023-02-11T04:27:50.240Z,18.83
2023-02-11T04:30:29.113Z,8.63
2023-02-11T04:32:59.842Z,15.95
2023-02-11T04:35:38.150Z,11.85
2023-02-11T04:38:06.002Z,14.95
2023-02-11T04:40:38.799Z,23.10
2023-02-11T04:43:08.843Z,18.55
2023-02-11T04:45:36.524Z,17.23
2023-02-11T04:48:08.309Z,19.67
2023-02-11T04:50:37.325Z,17.90
2023-02-11T04:53:04.980Z,16.55
2023-02-11T04:55:32.919Z,18.75
2023-02-11T04:58:00.421Z,13.30
2023-02-11T05:00:30.631Z,14.95
2023-02-11T05:03:01.326Z,17.63
2023-02-11T05:05:41.617Z,19.38
2023-02-11T05:08:14.778Z,17.50
2023-02-11T05:10:47.450Z,12.25
2023-02-11T05:13:17.827Z,14.02
2023-02-11T05:15:46.716Z,11.70
2023-02-11T05:18:24.777Z,11.98
2023-02-11T05:20:52.571Z,21.70
2023-02-11T05:23:20.178Z,11.98
2023-02-11T05:25:51.159Z,20.13
2023-02-11T05:28:22.153Z,11.57
2023-02-11T05:30:51.271Z,17.27
2023-02-11T05:33:21.776Z,27.83
2023-02-11T05:35:49.864Z,26.58
2023-02-11T05:38:21.870Z,22.33
2023-02-11T05:40:49.852Z,15.52
2023-02-11T05:43:24.217Z,22.08
2023-02-11T05:45:56.095Z,18.48
2023-02-11T05:48:24.001Z,22.77
2023-02-11T05:50:53.315Z,14.27
2023-02-11T05:53:22.803Z,20.90
2023-02-11T05:55:50.782Z,23.23
2023-02-11T05:58:23.507Z,17.65
2023-02-11T06:00:52.130Z,27.48
2023-02-11T06:03:19.772Z,15.52
2023-02-11T06:05:47.613Z,19.27
2023-02-11T06:08:17.791Z,19.15
2023-02-11T06:10:46.331Z,22.63
2023-02-11T06:13:20.968Z,27.13
2023-02-11T06:18:37.218Z,18.48
2023-02-11T06:21:12.047Z,21.17
2023-02-11T06:23:43.297Z,19.38
2023-02-11T06:26:29.845Z,15.73
2023-02-11T06:29:04.493Z,18.17
2023-02-11T06:31:36.711Z,12.80
2023-02-11T06:34:09.600Z,17.95
2023-02-11T06:36:39.838Z,28.13
2023-02-11T06:39:10.397Z,18.58
2023-02-11T06:41:38.298Z,17.52
2023-02-11T06:44:06.317Z,19.08
2023-02-11T06:46:34.101Z,19.17
2023-02-11T06:49:04.302Z,26.45
2023-02-11T06:51:39.238Z,13.90
2023-02-11T06:54:09.328Z,22.17
2023-02-11T06:56:41.085Z,31.15
2023-02-11T06:59:14.889Z,19.10
2023-02-11T07:01:44.574Z,15.97
2023-02-11T07:04:17.623Z,23.63
2023-02-11T07:06:47.928Z,28.05
2023-02-11T07:09:22.872Z,28.23
2023-02-11T07:11:53.381Z,24.15
2023-02-11T07:14:21.110Z,28.65
2023-02-11T07:16:49.972Z,18.55
2023-02-11T07:19:25.005Z,16.17
2023-02-11T07:21:52.729Z,30.83
2023-02-11T07:24:20.430Z,31.20
2023-02-11T07:26:48.088Z,24.70
2023-02-11T07:29:15.767Z,20.20
2023-02-11T07:31:44.769Z,28.00
2023-02-11T07:34:22.787Z,25.48
2023-02-11T07:36:51.649Z,25.13
2023-02-11T07:39:20.277Z,21.48
2023-02-11T07:41:49.322Z,24.58
2023-02-11T07:44:19.000Z,23.77
2023-02-11T07:46:50.636Z,23.98
2023-02-11T07:49:20.849Z,18.98
2023-02-11T07:51:51.823Z,23.55
2023-02-11T07:54:22.115Z,26.58
2023-02-11T07:56:52.428Z,28.08
2023-02-11T07:59:20.130Z,26.00
2023-02-11T08:01:51.562Z,30.58
2023-02-11T08:04:21.734Z,22.20
2023-02-11T08:06:49.396Z,25.45
2023-02-11T08:09:19.035Z,29.75
2023-02-11T08:11:46.791Z,22.63
2023-02-11T08:14:14.549Z,29.35
2023-02-11T08:16:43.349Z,22.42
2023-02-11T08:19:16.447Z,23.25
2023-02-11T08:21:45.683Z,27.27
2023-02-11T08:24:19.118Z,34.15
2023-02-11T08:26:49.395Z,21.60
2023-02-11T08:29:17.483Z,18.77
2023-02-11T08:31:49.640Z,18.95
2023-02-11T08:34:19.954Z,27.23
2023-02-11T08:36:52.275Z,20.08
2023-02-11T08:41:58.971Z,23.52
2023-02-11T08:44:29.821Z,23.40
2023-02-11T08:47:00.707Z,26.30
2023-02-11T08:49:31.614Z,29.52
2023-02-11T08:52:06.034Z,26.10
2023-02-11T08:54:34.981Z,24.75
2023-02-11T08:57:03.072Z,19.98
2023-02-11T08:59:30.890Z,22.52
2023-02-11T09:01:58.796Z,23.38
2023-02-11T09:04:28.899Z,25.60
2023-02-11T09:06:57.150Z,32.28
2023-02-11T09:09:24.711Z,23.38
2023-02-11T09:11:57.244Z,24.52
2023-02-11T09:14:27.867Z,24.42
2023-02-11T09:16:59.815Z,27.10
2023-02-11T09:19:27.427Z,12.65
2023-02-11T09:21:55.141Z,31.17
2023-02-11T09:24:22.777Z,25.50
2023-02-11T09:26:50.640Z,27.65
2023-02-11T09:29:18.389Z,25.75
2023-02-11T09:31:47.641Z,18.17
2023-02-11T09:34:20.379Z,22.33
2023-02-11T09:36:48.018Z,31.27
2023-02-11T09:39:20.573Z,22.85
2023-02-11T09:42:10.466Z,25.25
2023-02-11T09:44:43.075Z,28.63
2023-02-11T09:47:31.016Z,29.75
2023-02-11T09:50:12.663Z,27.92
2023-02-11T09:52:54.441Z,19.85
2023-02-11T09:55:48.681Z,31.98
2023-02-11T09:58:26.783Z,27.38
2023-02-11T10:01:13.097Z,26.77
2023-02-11T10:04:05.185Z,21.23
2023-02-11T10:06:35.634Z,35.28
2023-02-11T10:09:50.829Z,34.85
2023-02-11T10:12:42.090Z,28.13
2023-02-11T10:15:31.577Z,23.95
2023-02-11T10:18:54.488Z,25.90
2023-02-11T10:22:06.464Z,18.13
2023-02-11T10:24:35.463Z,21.67
2023-02-11T10:27:20.762Z,24.52
2023-02-11T10:29:57.014Z,20.35
2023-02-11T10:32:29.779Z,22.27
2023-02-11T10:35:04.002Z,29.58
2023-02-11T10:37:34.620Z,25.13
2023-02-11T10:40:05.313Z,23.83
2023-02-11T10:42:33.212Z,24.85
2023-02-11T10:45:07.466Z,22.00
2023-02-11T10:47:38.489Z,22.15
2023-02-11T10:50:26.847Z,23.73
2023-02-11T10:53:20.801Z,22.77
2023-02-11T10:55:59.868Z,22.63
2023-02-11T10:58:36.625Z,23.92
2023-02-11T11:01:12.898Z,19.10
2023-02-11T11:03:56.240Z,21.48
2023-02-11T11:06:34.893Z,21.33
2023-02-11T11:09:04.783Z,20.85
2023-02-11T11:11:32.509Z,20.80
2023-02-11T11:14:03.353Z,23.88
2023-02-11T11:16:32.753Z,21.15
2023-02-11T11:19:09.686Z,22.55
2023-02-11T11:21:47.443Z,19.20
2023-02-11T11:24:40.828Z,20.98
2023-02-11T11:27:23.303Z,16.50
2023-02-11T11:29:56.762Z,18.92
2023-02-11T11:32:30.686Z,17.83
2023-02-11T11:35:21.477Z,19.50
2023-02-11T11:37:54.166Z,16.85
2023-02-11T11:40:27.948Z,16.65
2023-02-11T11:43:17.059Z,16.37
2023-02-11T11:46:00.068Z,18.98
2023-02-11T11:48:38.939Z,16.80
2023-02-11T11:51:10.679Z,15.95
2023-02-11T11:53:42.604Z,16.75
2023-02-11T11:56:20.040Z,18.58
2023-02-11T11:58:55.803Z,13.88
2023-02-11T12:01:23.315Z,14.88
2023-02-11T12:04:18.080Z,12.50
2023-02-11T12:06:53.953Z,8.85
2023-02-11T12:09:36.164Z,10.95
2023-02-11T12:12:26.922Z,9.40
2023-02-11T12:15:28.415Z,10.02
2023-02-11T12:18:24.733Z,10.35
2023-02-11T12:21:13.785Z,8.75
2023-02-11T12:23:44.265Z,11.02
2023-02-11T12:26:19.826Z,8.38
2023-02-11T12:29:19.868Z,10.00
2023-02-11T12:32:19.645Z,8.52
2023-02-11T12:35:14.442Z,6.00
2023-02-11T12:38:02.046Z,10.35
2023-02-11T12:40:45.307Z,10.18
2023-02-11T12:43:18.958Z,11.68
2023-02-11T12:46:16.196Z,9.70
2023-02-11T12:49:20.783Z,7.47
2023-02-11T12:52:02.608Z,10.43
2023-02-11T12:54:32.036Z,9.27
2023-02-11T12:57:07.603Z,9.43
2023-02-11T13:00:09.818Z,7.10
2023-02-11T13:02:56.796Z,11.23
2023-02-11T13:05:45.191Z,11.05
2023-02-11T13:08:32.469Z,7.82
2023-02-11T13:11:20.401Z,8.38
2023-02-11T13:13:56.402Z,10.40
2023-02-11T13:16:41.181Z,9.50
2023-02-11T13:22:06.362Z,11.02
2023-02-11T13:24:45.495Z,8.68
2023-02-11T13:27:44.131Z,10.48
2023-02-11T13:30:39.418Z,8.88
2023-02-11T13:33:33.902Z,8.80
2023-02-11T13:36:10.374Z,7.78
2023-02-11T13:38:41.905Z,6.93
2023-02-11T13:41:27.484Z,10.98
2023-02-11T13:44:22.824Z,9.50
2023-02-11T13:49:41.731Z,7.65
2023-02-11T13:52:26.997Z,7.95
2023-02-11T13:55:07.308Z,7.35
2023-02-11T13:57:46.482Z,11.35
2023-02-11T14:03:43.413Z,7.30
2023-02-11T14:06:41.555Z,10.45
2023-02-11T14:09:13.961Z,8.25
2023-02-11T14:11:41.927Z,9.95
2023-02-11T14:14:24.742Z,7.30
2023-02-11T14:17:05.750Z,8.60
2023-02-11T14:19:40.544Z,7.57
2023-02-11T14:22:42.140Z,8.90
2023-02-11T14:25:24.004Z,8.25
2023-02-11T14:28:10.394Z,10.75
2023-02-11T14:30:45.288Z,13.55
2023-02-11T14:33:37.997Z,8.23
2023-02-11T14:36:33.617Z,7.03
2023-02-11T14:39:13.835Z,9.68
2023-02-11T14:41:47.286Z,8.73
2023-02-11T14:44:38.512Z,9.73
2023-02-11T14:47:07.446Z,8.73
2023-02-11T14:49:39.779Z,12.02
2023-02-11T14:52:26.728Z,11.40
2023-02-11T14:55:10.305Z,9.73
2023-02-11T14:57:42.934Z,7.57
2023-02-11T15:00:22.294Z,13.60
2023-02-11T15:02:53.997Z,10.70
2023-02-11T15:05:27.605Z,15.88
2023-02-11T15:08:15.661Z,7.43
2023-02-11T15:10:45.003Z,8.43
2023-02-11T15:13:21.571Z,6.30
2023-02-11T15:15:52.353Z,6.55
2023-02-11T15:18:24.108Z,6.78
2023-02-11T15:20:54.685Z,5.35
2023-02-11T15:23:25.682Z,8.68
2023-02-11T15:25:56.225Z,12.82
2023-02-11T15:28:26.869Z,7.80
2023-02-11T15:30:58.758Z,10.65
2023-02-11T15:33:29.999Z,10.85
2023-02-11T15:36:02.050Z,8.05
2023-02-11T15:38:30.615Z,10.10
2023-02-11T15:41:03.903Z,10.10
2023-02-11T15:43:50.848Z,7.75
2023-02-11T15:46:22.050Z,7.57
2023-02-11T15:48:57.859Z,9.23
2023-02-11T15:51:47.517Z,7.85
2023-02-11T15:54:24.904Z,12.05
2023-02-11T15:57:00.540Z,9.00
2023-02-11T15:59:33.241Z,7.03
2023-02-11T16:02:16.371Z,8.05
2023-02-11T16:05:08.969Z,8.02
2023-02-11T16:07:44.174Z,8.27
2023-02-11T16:10:35.573Z,8.27
2023-02-11T16:13:11.763Z,6.90
2023-02-11T16:15:54.357Z,8.35
2023-02-11T16:18:40.287Z,9.77
2023-02-11T16:21:16.889Z,9.88
2023-02-11T16:23:51.435Z,6.95
2023-02-11T16:26:30.873Z,9.25
2023-02-11T16:29:18.507Z,8.75
2023-02-11T16:31:48.191Z,9.18
2023-02-11T16:34:25.005Z,9.63
2023-02-11T16:36:53.156Z,6.80
2023-02-11T16:39:24.547Z,6.57
2023-02-11T16:41:52.798Z,8.00
2023-02-11T16:44:22.790Z,8.25
2023-02-11T16:46:51.830Z,8.63
2023-02-11T16:49:41.485Z,7.22
2023-02-11T16:52:14.485Z,9.27
2023-02-11T16:54:42.306Z,14.82
2023-02-11T16:57:23.624Z,10.35
2023-02-11T16:59:52.182Z,9.25
2023-02-11T17:02:27.109Z,6.25
2023-02-11T17:04:56.244Z,9.18
2023-02-11T17:07:23.845Z,13.73
2023-02-11T17:09:52.250Z,8.00
2023-02-11T17:12:20.478Z,10.85
2023-02-11T17:14:48.044Z,9.70
2023-02-11T17:17:16.272Z,9.77
2023-02-11T17:19:43.890Z,11.55
2023-02-11T17:22:14.383Z,7.40
2023-02-11T17:24:44.201Z,9.55
2023-02-11T17:27:15.221Z,10.38
2023-02-11T17:29:42.899Z,9.00
2023-02-11T17:32:13.691Z,11.68
2023-02-11T17:34:42.999Z,9.48
2023-02-11T17:37:11.579Z,11.70
2023-02-11T17:39:40.239Z,10.32
2023-02-11T17:42:08.841Z,13.25
2023-02-11T17:44:37.338Z,8.23
2023-02-11T17:47:05.130Z,9.07
2023-02-11T17:49:32.618Z,11.18
2023-02-11T17:52:02.316Z,10.00
2023-02-11T17:54:29.811Z,11.13
2023-02-11T17:56:58.774Z,11.68
2023-02-11T17:59:26.542Z,9.27
2023-02-11T18:01:58.083Z,12.05
2023-02-11T18:04:25.817Z,9.05
2023-02-11T18:06:53.712Z,10.98
2023-02-11T18:09:22.912Z,10.63
2023-02-11T18:11:52.515Z,11.27
2023-02-11T18:14:21.787Z,11.70
2023-02-11T18:16:52.841Z,8.07
2023-02-11T18:19:20.956Z,11.95
2023-02-11T18:21:53.706Z,13.57
2023-02-11T18:24:21.900Z,12.65
2023-02-11T18:26:49.626Z,10.48
2023-02-11T18:29:17.188Z,13.65
2023-02-11T18:31:44.880Z,9.27
2023-02-11T18:34:18.253Z,11.93
2023-02-11T18:36:45.994Z,12.00
2023-02-11T18:39:16.035Z,10.60
2023-02-11T18:41:43.674Z,11.27
2023-02-11T18:44:14.350Z,13.38
2023-02-11T18:46:44.883Z,10.80
2023-02-11T18:49:13.268Z,14.65
2023-02-11T18:51:40.850Z,13.75
2023-02-11T18:54:08.514Z,10.27
2023-02-11T18:56:38.853Z,11.73
2023-02-11T18:59:06.603Z,12.48
2023-02-11T19:01:34.539Z,14.52
2023-02-11T19:04:04.780Z,10.93
2023-02-11T19:06:35.558Z,12.23
2023-02-11T19:09:07.131Z,15.23
2023-02-11T19:11:54.371Z,12.20
2023-02-11T19:14:37.120Z,12.48
2023-02-11T19:17:07.437Z,13.00
2023-02-11T19:19:36.572Z,11.57
2023-02-11T19:22:09.190Z,13.13
2023-02-11T19:24:38.707Z,12.38
2023-02-11T19:27:06.257Z,11.98
2023-02-11T19:29:35.378Z,11.13
2023-02-11T19:32:04.360Z,10.98
2023-02-11T19:34:32.642Z,13.30
2023-02-11T19:37:01.697Z,11.48
2023-02-11T19:39:29.424Z,10.32
2023-02-11T19:41:56.896Z,9.85
2023-02-11T19:44:24.374Z,14.05
2023-02-11T19:46:53.400Z,12.23
2023-02-11T19:49:26.031Z,13.77
2023-02-11T19:51:57.492Z,12.77
2023-02-11T19:54:31.234Z,13.40
2023-02-11T19:56:59.208Z,10.32
2023-02-11T19:59:26.959Z,11.57
2023-02-11T20:01:54.721Z,10.38
2023-02-11T20:04:24.282Z,11.95
2023-02-11T20:06:52.115Z,12.23
2023-02-11T20:09:19.680Z,16.30
2023-02-11T20:11:47.453Z,11.35
2023-02-11T20:14:21.200Z,12.43
2023-02-11T20:16:50.071Z,14.98
2023-02-11T20:19:21.600Z,13.15
2023-02-11T20:21:53.017Z,15.68
2023-02-11T20:24:23.602Z,16.20
2023-02-11T20:26:58.193Z,14.57
2023-02-11T20:31:54.425Z,12.05
2023-02-11T20:34:22.295Z,15.15
2023-02-11T20:36:54.390Z,16.65
2023-02-11T20:39:23.837Z,15.82
2023-02-11T20:41:52.449Z,16.42
2023-02-11T20:44:22.390Z,16.83
2023-02-11T20:46:54.569Z,16.38
2023-02-11T20:49:24.115Z,16.38
2023-02-11T20:51:53.882Z,16.58
2023-02-11T20:54:24.380Z,15.25
2023-02-11T20:56:54.037Z,18.67
2023-02-11T20:59:22.021Z,15.70
2023-02-11T21:01:55.774Z,16.13
2023-02-11T21:04:27.434Z,17.17
2023-02-11T21:06:59.301Z,15.00
2023-02-11T21:09:30.701Z,16.45
2023-02-11T21:11:58.460Z,14.48
2023-02-11T21:14:26.774Z,13.40
2023-02-11T21:16:58.336Z,16.83
2023-02-11T21:19:28.174Z,10.57
2023-02-11T21:21:57.329Z,14.18
2023-02-11T21:24:24.993Z,10.25
2023-02-11T21:26:52.644Z,13.43
2023-02-11T21:29:23.398Z,12.88
2023-02-11T21:31:51.530Z,13.35
2023-02-11T21:34:20.375Z,13.23
2023-02-11T21:36:48.104Z,12.00
2023-02-11T21:39:20.619Z,13.07
2023-02-11T21:41:48.516Z,13.90
2023-02-11T21:44:16.100Z,14.40
2023-02-11T21:46:47.991Z,17.10
2023-02-11T21:49:20.523Z,10.98
2023-02-11T21:51:50.336Z,16.92
2023-02-11T21:54:18.864Z,14.82
2023-02-11T21:56:46.578Z,13.07
2023-02-11T22:02:48.271Z,12.77
2023-02-11T22:09:42.518Z,13.02
2023-02-11T22:12:11.494Z,14.73
2023-02-11T22:14:39.481Z,14.60
2023-02-11T22:17:09.892Z,16.45
2023-02-11T22:19:37.933Z,14.82
2023-02-11T22:22:05.845Z,13.68
2023-02-11T22:24:33.602Z,18.10
2023-02-11T22:27:04.111Z,15.63
2023-02-11T22:29:31.871Z,15.68
2023-02-11T22:31:59.704Z,18.23
2023-02-11T22:34:28.622Z,16.10
2023-02-11T22:36:56.272Z,12.45
2023-02-11T22:39:24.118Z,20.15
2023-02-11T22:42:00.927Z,14.07
2023-02-11T22:44:31.220Z,13.18
2023-02-11T22:47:00.122Z,15.73
2023-02-11T22:49:32.556Z,15.23
2023-02-11T22:52:06.630Z,16.55
2023-02-11T22:54:34.450Z,12.98
2023-02-11T22:57:04.393Z,13.77
2023-02-11T22:59:33.405Z,16.20
2023-02-11T23:02:13.002Z,17.77
2023-02-11T23:04:40.790Z,14.32
2023-02-11T23:07:12.789Z,24.20
2023-02-11T23:09:40.552Z,18.10
2023-02-11T23:12:13.782Z,16.67
2023-02-11T23:14:42.710Z,15.30
2023-02-11T23:17:10.450Z,19.08
2023-02-11T23:19:43.030Z,18.80
2023-02-11T23:22:11.926Z,17.38
2023-02-11T23:24:39.527Z,15.30
2023-02-11T23:27:09.786Z,17.50
2023-02-11T23:29:45.883Z,19.00
2023-02-11T23:36:49.751Z,20.65
2023-02-11T23:40:43.619Z,15.88
2023-02-11T23:43:11.498Z,12.93
2023-02-11T23:45:43.719Z,18.60
2023-02-11T23:48:15.986Z,15.30
2023-02-11T23:50:44.800Z,17.27
2023-02-11T23:53:15.629Z,15.80
2023-02-11T23:55:50.948Z,15.68
2023-02-11T23:58:23.528Z,15.05
